sensor_id;sensor_type;location;lat;lon;timestamp;pressure;altitude;pressure_sealevel;temperature;humidity
54870;BME280;40756;-37.950;145.008;2023-03-13T00:01:36;101632.45;;;18.64;42.46
54870;BME280;40756;-37.950;145.008;2023-03-13T00:04:06;101621.67;;;19.77;41.35
54870;BME280;40756;-37.950;145.008;2023-03-13T00:06:37;101617.44;;;19.93;40.89
54870;BME280;40756;-37.950;145.008;2023-03-13T00:09:09;101618.12;;;20.03;40.54
54870;BME280;40756;-37.950;145.008;2023-03-13T00:11:39;101609.95;;;19.94;40.80
54870;BME280;40756;-37.950;145.008;2023-03-13T00:14:09;101607.42;;;20.29;40.25
54870;BME280;40756;-37.950;145.008;2023-03-13T00:16:39;101608.51;;;20.50;40.07
54870;BME280;40756;-37.950;145.008;2023-03-13T00:19:09;101606.54;;;20.85;39.21
54870;BME280;40756;-37.950;145.008;2023-03-13T00:21:39;101602.99;;;20.71;38.97
54870;BME280;40756;-37.950;145.008;2023-03-13T00:24:10;101613.06;;;19.84;39.09
54870;BME280;40756;-37.950;145.008;2023-03-13T00:26:39;101611.31;;;20.61;39.10
54870;BME280;40756;-37.950;145.008;2023-03-13T00:29:09;101609.01;;;20.60;39.04
54870;BME280;40756;-37.950;145.008;2023-03-13T00:31:38;101609.25;;;20.23;39.17
54870;BME280;40756;-37.950;145.008;2023-03-13T00:34:09;101606.34;;;21.14;38.38
54870;BME280;40756;-37.950;145.008;2023-03-13T00:36:40;101604.38;;;20.63;38.10
54870;BME280;40756;-37.950;145.008;2023-03-13T00:39:10;101599.86;;;20.84;38.48
54870;BME280;40756;-37.950;145.008;2023-03-13T00:41:39;101595.51;;;21.11;37.60
54870;BME280;40756;-37.950;145.008;2023-03-13T00:44:09;101590.61;;;21.63;36.98
54870;BME280;40756;-37.950;145.008;2023-03-13T00:46:38;101593.65;;;21.43;36.98
54870;BME280;40756;-37.950;145.008;2023-03-13T00:49:08;101596.51;;;22.02;36.19
54870;BME280;40756;-37.950;145.008;2023-03-13T00:51:37;101591.48;;;22.24;36.27
54870;BME280;40756;-37.950;145.008;2023-03-13T00:54:07;101588.57;;;22.33;35.42
54870;BME280;40756;-37.950;145.008;2023-03-13T00:56:37;101584.30;;;22.16;34.41
54870;BME280;40756;-37.950;145.008;2023-03-13T00:59:07;101582.68;;;22.54;34.37
54870;BME280;40756;-37.950;145.008;2023-03-13T01:01:37;101578.73;;;21.09;35.25
54870;BME280;40756;-37.950;145.008;2023-03-13T01:04:10;101577.91;;;21.85;35.12
54870;BME280;40756;-37.950;145.008;2023-03-13T01:06:40;101577.55;;;21.37;35.61
54870;BME280;40756;-37.950;145.008;2023-03-13T01:09:12;101576.91;;;21.55;35.54
54870;BME280;40756;-37.950;145.008;2023-03-13T01:11:43;101577.03;;;22.13;35.06
54870;BME280;40756;-37.950;145.008;2023-03-13T01:14:15;101571.30;;;21.90;34.56
54870;BME280;40756;-37.950;145.008;2023-03-13T01:16:45;101572.03;;;21.39;34.99
54870;BME280;40756;-37.950;145.008;2023-03-13T01:19:15;101563.47;;;21.64;37.36
54870;BME280;40756;-37.950;145.008;2023-03-13T01:21:45;101566.06;;;20.54;38.13
54870;BME280;40756;-37.950;145.008;2023-03-13T01:24:15;101566.56;;;19.98;40.12
54870;BME280;40756;-37.950;145.008;2023-03-13T01:26:44;101562.83;;;21.04;39.11
54870;BME280;40756;-37.950;145.008;2023-03-13T01:29:14;101564.29;;;20.09;40.76
54870;BME280;40756;-37.950;145.008;2023-03-13T01:31:43;101558.79;;;21.70;38.54
54870;BME280;40756;-37.950;145.008;2023-03-13T01:34:13;101563.43;;;20.12;40.43
54870;BME280;40756;-37.950;145.008;2023-03-13T01:36:43;101558.03;;;21.24;39.24
54870;BME280;40756;-37.950;145.008;2023-03-13T01:39:13;101551.01;;;21.50;38.72
54870;BME280;40756;-37.950;145.008;2023-03-13T01:41:43;101556.23;;;19.85;40.61
54870;BME280;40756;-37.950;145.008;2023-03-13T01:44:25;101544.28;;;21.11;39.11
54870;BME280;40756;-37.950;145.008;2023-03-13T01:46:56;101545.67;;;20.28;40.59
54870;BME280;40756;-37.950;145.008;2023-03-13T01:49:28;101541.84;;;19.84;41.23
54870;BME280;40756;-37.950;145.008;2023-03-13T01:52:00;101538.17;;;19.64;42.26
54870;BME280;40756;-37.950;145.008;2023-03-13T01:54:35;101531.34;;;21.01;41.09
54870;BME280;40756;-37.950;145.008;2023-03-13T01:57:09;101535.44;;;19.32;42.49
54870;BME280;40756;-37.950;145.008;2023-03-13T01:59:45;101533.15;;;19.70;42.25
54870;BME280;40756;-37.950;145.008;2023-03-13T02:02:16;101536.71;;;19.72;42.29
54870;BME280;40756;-37.950;145.008;2023-03-13T02:04:48;101529.30;;;20.48;40.95
54870;BME280;40756;-37.950;145.008;2023-03-13T02:07:21;101528.82;;;21.80;39.48
54870;BME280;40756;-37.950;145.008;2023-03-13T02:09:54;101527.35;;;20.45;40.35
54870;BME280;40756;-37.950;145.008;2023-03-13T02:12:29;101519.72;;;19.68;41.52
54870;BME280;40756;-37.950;145.008;2023-03-13T02:15:00;101511.05;;;20.65;40.57
54870;BME280;40756;-37.950;145.008;2023-03-13T02:17:34;101513.47;;;19.69;41.53
54870;BME280;40756;-37.950;145.008;2023-03-13T02:20:05;101502.79;;;20.84;40.04
54870;BME280;40756;-37.950;145.008;2023-03-13T02:22:40;101495.42;;;21.73;38.89
54870;BME280;40756;-37.950;145.008;2023-03-13T02:27:53;101493.99;;;22.15;38.50
54870;BME280;40756;-37.950;145.008;2023-03-13T02:30:25;101488.17;;;22.02;38.18
54870;BME280;40756;-37.950;145.008;2023-03-13T02:32:55;101486.22;;;20.97;39.35
54870;BME280;40756;-37.950;145.008;2023-03-13T02:35:24;101489.18;;;22.02;38.11
54870;BME280;40756;-37.950;145.008;2023-03-13T02:37:58;101486.94;;;20.46;39.74
54870;BME280;40756;-37.950;145.008;2023-03-13T02:40:31;101478.38;;;21.98;38.58
54870;BME280;40756;-37.950;145.008;2023-03-13T02:43:06;101479.36;;;21.28;38.07
54870;BME280;40756;-37.950;145.008;2023-03-13T02:45:37;101473.75;;;21.54;38.30
54870;BME280;40756;-37.950;145.008;2023-03-13T02:48:06;101470.07;;;23.40;35.19
54870;BME280;40756;-37.950;145.008;2023-03-13T02:50:37;101474.13;;;23.06;35.36
54870;BME280;40756;-37.950;145.008;2023-03-13T02:53:07;101463.06;;;22.96;36.23
54870;BME280;40756;-37.950;145.008;2023-03-13T02:55:40;101466.82;;;22.62;36.36
54870;BME280;40756;-37.950;145.008;2023-03-13T02:58:10;101461.18;;;23.04;35.61
54870;BME280;40756;-37.950;145.008;2023-03-13T03:00:39;101455.45;;;22.88;35.85
54870;BME280;40756;-37.950;145.008;2023-03-13T03:03:09;101452.91;;;22.86;36.05
54870;BME280;40756;-37.950;145.008;2023-03-13T03:05:38;101449.72;;;23.44;34.69
54870;BME280;40756;-37.950;145.008;2023-03-13T03:08:08;101452.96;;;23.04;35.13
54870;BME280;40756;-37.950;145.008;2023-03-13T03:10:37;101450.25;;;21.59;37.37
54870;BME280;40756;-37.950;145.008;2023-03-13T03:13:06;101440.81;;;23.68;33.78
54870;BME280;40756;-37.950;145.008;2023-03-13T03:15:36;101443.53;;;23.55;34.60
54870;BME280;40756;-37.950;145.008;2023-03-13T03:18:05;101438.96;;;24.54;33.67
54870;BME280;40756;-37.950;145.008;2023-03-13T03:20:35;101435.94;;;24.75;33.15
54870;BME280;40756;-37.950;145.008;2023-03-13T03:23:04;101441.03;;;22.43;35.27
54870;BME280;40756;-37.950;145.008;2023-03-13T03:25:34;101435.45;;;22.63;35.45
54870;BME280;40756;-37.950;145.008;2023-03-13T03:28:03;101436.10;;;22.40;36.71
54870;BME280;40756;-37.950;145.008;2023-03-13T03:30:32;101433.99;;;23.01;36.68
54870;BME280;40756;-37.950;145.008;2023-03-13T03:33:03;101431.00;;;24.23;33.53
54870;BME280;40756;-37.950;145.008;2023-03-13T03:35:33;101438.94;;;22.18;36.15
54870;BME280;40756;-37.950;145.008;2023-03-13T03:38:04;101436.49;;;23.79;34.76
54870;BME280;40756;-37.950;145.008;2023-03-13T03:40:33;101430.78;;;24.35;33.70
54870;BME280;40756;-37.950;145.008;2023-03-13T03:43:02;101434.44;;;23.39;35.02
54870;BME280;40756;-37.950;145.008;2023-03-13T03:45:32;101437.72;;;22.99;35.92
54870;BME280;40756;-37.950;145.008;2023-03-13T03:48:01;101441.66;;;22.90;36.17
54870;BME280;40756;-37.950;145.008;2023-03-13T03:50:30;101431.41;;;22.95;36.77
54870;BME280;40756;-37.950;145.008;2023-03-13T03:53:00;101433.66;;;22.91;36.69
54870;BME280;40756;-37.950;145.008;2023-03-13T03:55:29;101428.03;;;24.66;34.19
54870;BME280;40756;-37.950;145.008;2023-03-13T03:57:59;101429.42;;;23.63;34.90
54870;BME280;40756;-37.950;145.008;2023-03-13T04:00:28;101426.04;;;23.14;35.63
54870;BME280;40756;-37.950;145.008;2023-03-13T04:02:58;101421.86;;;23.35;35.62
54870;BME280;40756;-37.950;145.008;2023-03-13T04:05:27;101417.93;;;24.58;34.09
54870;BME280;40756;-37.950;145.008;2023-03-13T04:07:57;101413.88;;;25.10;33.22
54870;BME280;40756;-37.950;145.008;2023-03-13T04:10:26;101413.87;;;25.30;33.04
54870;BME280;40756;-37.950;145.008;2023-03-13T04:12:55;101416.90;;;23.60;33.91
54870;BME280;40756;-37.950;145.008;2023-03-13T04:15:25;101425.99;;;22.12;36.16
54870;BME280;40756;-37.950;145.008;2023-03-13T04:17:54;101413.83;;;24.61;33.97
54870;BME280;40756;-37.950;145.008;2023-03-13T04:20:24;101416.10;;;24.21;34.65
54870;BME280;40756;-37.950;145.008;2023-03-13T04:22:53;101410.82;;;25.48;32.71
54870;BME280;40756;-37.950;145.008;2023-03-13T04:25:22;101412.41;;;25.60;32.84
54870;BME280;40756;-37.950;145.008;2023-03-13T04:27:52;101412.08;;;24.14;33.62
54870;BME280;40756;-37.950;145.008;2023-03-13T04:30:22;101408.72;;;22.88;34.64
54870;BME280;40756;-37.950;145.008;2023-03-13T04:32:51;101406.17;;;22.93;35.92
54870;BME280;40756;-37.950;145.008;2023-03-13T04:35:20;101404.28;;;25.05;34.00
54870;BME280;40756;-37.950;145.008;2023-03-13T04:37:49;101409.29;;;22.58;37.01
54870;BME280;40756;-37.950;145.008;2023-03-13T04:40:19;101403.40;;;24.80;34.28
54870;BME280;40756;-37.950;145.008;2023-03-13T04:42:49;101409.08;;;22.34;38.33
54870;BME280;40756;-37.950;145.008;2023-03-13T04:45:18;101402.51;;;23.81;36.38
54870;BME280;40756;-37.950;145.008;2023-03-13T04:47:48;101405.39;;;23.46;36.39
54870;BME280;40756;-37.950;145.008;2023-03-13T04:50:17;101399.57;;;24.07;36.28
54870;BME280;40756;-37.950;145.008;2023-03-13T04:52:47;101394.20;;;24.44;36.25
54870;BME280;40756;-37.950;145.008;2023-03-13T04:55:16;101403.95;;;21.99;38.72
54870;BME280;40756;-37.950;145.008;2023-03-13T04:57:45;101401.47;;;23.07;37.62
54870;BME280;40756;-37.950;145.008;2023-03-13T05:00:15;101404.14;;;22.83;38.55
54870;BME280;40756;-37.950;145.008;2023-03-13T05:02:45;101408.91;;;21.38;40.83
54870;BME280;40756;-37.950;145.008;2023-03-13T05:05:14;101396.34;;;22.36;40.56
54870;BME280;40756;-37.950;145.008;2023-03-13T05:07:44;101400.24;;;22.59;39.06
54870;BME280;40756;-37.950;145.008;2023-03-13T05:10:13;101396.88;;;22.53;40.17
54870;BME280;40756;-37.950;145.008;2023-03-13T05:12:42;101398.39;;;23.69;38.45
54870;BME280;40756;-37.950;145.008;2023-03-13T05:15:12;101402.66;;;23.68;38.79
54870;BME280;40756;-37.950;145.008;2023-03-13T05:17:41;101398.50;;;24.10;38.00
54870;BME280;40756;-37.950;145.008;2023-03-13T05:20:11;101405.34;;;22.88;39.66
54870;BME280;40756;-37.950;145.008;2023-03-13T05:22:41;101400.72;;;23.47;39.70
54870;BME280;40756;-37.950;145.008;2023-03-13T05:25:10;101401.09;;;24.18;38.17
54870;BME280;40756;-37.950;145.008;2023-03-13T05:27:40;101398.91;;;23.60;38.60
54870;BME280;40756;-37.950;145.008;2023-03-13T05:30:10;101399.66;;;23.36;38.84
54870;BME280;40756;-37.950;145.008;2023-03-13T05:32:40;101393.43;;;23.31;39.03
54870;BME280;40756;-37.950;145.008;2023-03-13T05:35:09;101392.49;;;23.06;39.91
54870;BME280;40756;-37.950;145.008;2023-03-13T05:37:39;101390.86;;;22.60;40.10
54870;BME280;40756;-37.950;145.008;2023-03-13T05:40:10;101390.63;;;22.58;41.38
54870;BME280;40756;-37.950;145.008;2023-03-13T05:42:40;101387.15;;;24.09;39.95
54870;BME280;40756;-37.950;145.008;2023-03-13T05:45:11;101384.01;;;23.78;39.46
54870;BME280;40756;-37.950;145.008;2023-03-13T05:47:40;101385.68;;;23.61;39.15
54870;BME280;40756;-37.950;145.008;2023-03-13T05:50:10;101387.84;;;23.28;39.25
54870;BME280;40756;-37.950;145.008;2023-03-13T05:52:40;101384.72;;;23.88;38.96
54870;BME280;40756;-37.950;145.008;2023-03-13T05:55:09;101383.20;;;24.59;38.31
54870;BME280;40756;-37.950;145.008;2023-03-13T05:57:38;101381.45;;;24.43;38.45
54870;BME280;40756;-37.950;145.008;2023-03-13T06:00:09;101381.24;;;23.25;39.40
54870;BME280;40756;-37.950;145.008;2023-03-13T06:02:39;101384.37;;;23.05;40.12
54870;BME280;40756;-37.950;145.008;2023-03-13T06:05:09;101378.12;;;23.66;39.56
54870;BME280;40756;-37.950;145.008;2023-03-13T06:07:39;101385.36;;;22.60;41.13
54870;BME280;40756;-37.950;145.008;2023-03-13T06:10:09;101378.96;;;21.83;42.99
54870;BME280;40756;-37.950;145.008;2023-03-13T06:12:38;101376.11;;;23.24;41.26
54870;BME280;40756;-37.950;145.008;2023-03-13T06:15:09;101379.15;;;22.64;41.55
54870;BME280;40756;-37.950;145.008;2023-03-13T06:17:38;101370.81;;;21.99;42.96
54870;BME280;40756;-37.950;145.008;2023-03-13T06:20:09;101370.12;;;23.49;40.96
54870;BME280;40756;-37.950;145.008;2023-03-13T06:22:39;101371.38;;;22.64;41.96
54870;BME280;40756;-37.950;145.008;2023-03-13T06:25:10;101370.30;;;23.04;42.04
54870;BME280;40756;-37.950;145.008;2023-03-13T06:27:41;101371.43;;;22.22;43.17
54870;BME280;40756;-37.950;145.008;2023-03-13T06:30:11;101369.29;;;21.66;44.47
54870;BME280;40756;-37.950;145.008;2023-03-13T06:32:40;101366.91;;;22.44;42.97
54870;BME280;40756;-37.950;145.008;2023-03-13T06:35:10;101362.33;;;22.04;44.40
54870;BME280;40756;-37.950;145.008;2023-03-13T06:37:39;101362.21;;;22.24;43.35
54870;BME280;40756;-37.950;145.008;2023-03-13T06:40:10;101365.63;;;23.20;42.75
54870;BME280;40756;-37.950;145.008;2023-03-13T06:42:41;101365.33;;;21.72;44.66
54870;BME280;40756;-37.950;145.008;2023-03-13T06:45:11;101368.90;;;22.73;43.39
54870;BME280;40756;-37.950;145.008;2023-03-13T06:47:40;101372.44;;;21.78;44.89
54870;BME280;40756;-37.950;145.008;2023-03-13T06:50:11;101362.81;;;21.87;44.56
54870;BME280;40756;-37.950;145.008;2023-03-13T06:52:40;101362.20;;;22.94;42.33
54870;BME280;40756;-37.950;145.008;2023-03-13T06:55:11;101363.21;;;22.69;43.32
54870;BME280;40756;-37.950;145.008;2023-03-13T06:57:40;101364.11;;;22.85;43.26
54870;BME280;40756;-37.950;145.008;2023-03-13T07:00:13;101363.26;;;22.56;43.11
54870;BME280;40756;-37.950;145.008;2023-03-13T07:02:42;101361.41;;;21.15;46.31
54870;BME280;40756;-37.950;145.008;2023-03-13T07:05:12;101369.11;;;22.01;44.80
54870;BME280;40756;-37.950;145.008;2023-03-13T07:07:41;101370.12;;;22.60;43.03
54870;BME280;40756;-37.950;145.008;2023-03-13T07:10:11;101371.49;;;22.12;44.15
54870;BME280;40756;-37.950;145.008;2023-03-13T07:12:41;101370.93;;;21.98;45.50
54870;BME280;40756;-37.950;145.008;2023-03-13T07:15:11;101375.64;;;21.74;46.00
54870;BME280;40756;-37.950;145.008;2023-03-13T07:17:41;101375.13;;;21.80;45.45
54870;BME280;40756;-37.950;145.008;2023-03-13T07:20:11;101371.88;;;22.65;44.57
54870;BME280;40756;-37.950;145.008;2023-03-13T07:22:41;101375.29;;;21.92;45.65
54870;BME280;40756;-37.950;145.008;2023-03-13T07:25:10;101371.32;;;22.03;45.41
54870;BME280;40756;-37.950;145.008;2023-03-13T07:27:40;101373.18;;;21.70;45.95
54870;BME280;40756;-37.950;145.008;2023-03-13T07:30:10;101374.07;;;20.93;47.16
54870;BME280;40756;-37.950;145.008;2023-03-13T07:32:39;101366.81;;;22.33;45.70
54870;BME280;40756;-37.950;145.008;2023-03-13T07:35:09;101363.38;;;22.23;45.23
54870;BME280;40756;-37.950;145.008;2023-03-13T07:37:39;101365.08;;;21.21;46.94
54870;BME280;40756;-37.950;145.008;2023-03-13T07:40:09;101370.69;;;21.80;46.09
54870;BME280;40756;-37.950;145.008;2023-03-13T07:42:41;101373.50;;;21.46;47.03
54870;BME280;40756;-37.950;145.008;2023-03-13T07:45:11;101375.00;;;20.47;48.90
54870;BME280;40756;-37.950;145.008;2023-03-13T07:47:40;101375.09;;;21.74;47.85
54870;BME280;40756;-37.950;145.008;2023-03-13T07:50:10;101382.50;;;21.33;47.52
54870;BME280;40756;-37.950;145.008;2023-03-13T07:52:40;101379.21;;;20.33;49.53
54870;BME280;40756;-37.950;145.008;2023-03-13T07:55:09;101380.97;;;20.93;49.62
54870;BME280;40756;-37.950;145.008;2023-03-13T07:57:39;101384.30;;;20.75;50.12
54870;BME280;40756;-37.950;145.008;2023-03-13T08:00:09;101385.29;;;20.70;50.63
54870;BME280;40756;-37.950;145.008;2023-03-13T08:02:39;101384.54;;;20.91;50.01
54870;BME280;40756;-37.950;145.008;2023-03-13T08:05:09;101383.55;;;20.59;50.48
54870;BME280;40756;-37.950;145.008;2023-03-13T08:07:38;101389.07;;;20.54;50.64
54870;BME280;40756;-37.950;145.008;2023-03-13T08:10:09;101389.76;;;20.59;50.94
54870;BME280;40756;-37.950;145.008;2023-03-13T08:12:39;101392.35;;;20.07;52.27
54870;BME280;40756;-37.950;145.008;2023-03-13T08:15:09;101392.80;;;20.29;52.66
54870;BME280;40756;-37.950;145.008;2023-03-13T08:17:38;101392.66;;;19.71;52.78
54870;BME280;40756;-37.950;145.008;2023-03-13T08:20:09;101397.42;;;21.09;51.16
54870;BME280;40756;-37.950;145.008;2023-03-13T08:22:39;101401.34;;;20.33;51.35
54870;BME280;40756;-37.950;145.008;2023-03-13T08:25:09;101404.21;;;20.18;52.12
54870;BME280;40756;-37.950;145.008;2023-03-13T08:27:38;101407.92;;;20.52;51.25
54870;BME280;40756;-37.950;145.008;2023-03-13T08:30:09;101407.79;;;20.33;51.29
54870;BME280;40756;-37.950;145.008;2023-03-13T08:32:44;101413.75;;;19.60;52.72
54870;BME280;40756;-37.950;145.008;2023-03-13T08:35:14;101415.91;;;19.57;53.25
54870;BME280;40756;-37.950;145.008;2023-03-13T08:37:43;101417.51;;;20.45;51.90
54870;BME280;40756;-37.950;145.008;2023-03-13T08:40:13;101420.31;;;20.12;53.48
54870;BME280;40756;-37.950;145.008;2023-03-13T08:42:44;101422.88;;;19.78;53.20
54870;BME280;40756;-37.950;145.008;2023-03-13T08:45:13;101421.09;;;20.36;52.13
54870;BME280;40756;-37.950;145.008;2023-03-13T08:47:43;101424.89;;;20.46;51.29
54870;BME280;40756;-37.950;145.008;2023-03-13T08:50:12;101428.14;;;20.12;52.75
54870;BME280;40756;-37.950;145.008;2023-03-13T08:52:44;101417.12;;;20.40;52.37
54870;BME280;40756;-37.950;145.008;2023-03-13T08:55:13;101415.98;;;20.22;52.23
54870;BME280;40756;-37.950;145.008;2023-03-13T08:57:42;101418.04;;;20.16;53.09
54870;BME280;40756;-37.950;145.008;2023-03-13T09:00:13;101416.45;;;19.98;52.78
54870;BME280;40756;-37.950;145.008;2023-03-13T09:02:43;101416.76;;;19.58;52.96
54870;BME280;40756;-37.950;145.008;2023-03-13T09:05:13;101413.46;;;20.24;51.59
54870;BME280;40756;-37.950;145.008;2023-03-13T09:07:42;101412.55;;;19.93;52.41
54870;BME280;40756;-37.950;145.008;2023-03-13T09:10:12;101412.05;;;19.28;53.00
54870;BME280;40756;-37.950;145.008;2023-03-13T09:12:41;101411.57;;;19.95;51.64
54870;BME280;40756;-37.950;145.008;2023-03-13T09:15:11;101414.22;;;19.93;51.93
54870;BME280;40756;-37.950;145.008;2023-03-13T09:17:40;101413.82;;;20.36;51.58
54870;BME280;40756;-37.950;145.008;2023-03-13T09:20:11;101421.78;;;19.73;52.14
54870;BME280;40756;-37.950;145.008;2023-03-13T09:22:40;101425.38;;;19.98;51.61
54870;BME280;40756;-37.950;145.008;2023-03-13T09:25:10;101426.68;;;20.09;52.33
54870;BME280;40756;-37.950;145.008;2023-03-13T09:27:41;101431.32;;;20.24;52.09
54870;BME280;40756;-37.950;145.008;2023-03-13T09:30:11;101431.39;;;20.49;51.49
54870;BME280;40756;-37.950;145.008;2023-03-13T09:32:41;101435.76;;;20.24;51.35
54870;BME280;40756;-37.950;145.008;2023-03-13T09:35:11;101443.68;;;19.62;52.64
54870;BME280;40756;-37.950;145.008;2023-03-13T09:37:40;101447.51;;;20.63;50.90
54870;BME280;40756;-37.950;145.008;2023-03-13T09:40:15;101455.95;;;20.92;50.76
54870;BME280;40756;-37.950;145.008;2023-03-13T09:42:48;101458.78;;;20.54;50.80
54870;BME280;40756;-37.950;145.008;2023-03-13T09:45:24;101462.45;;;19.55;52.65
54870;BME280;40756;-37.950;145.008;2023-03-13T09:48:00;101465.85;;;20.17;51.47
54870;BME280;40756;-37.950;145.008;2023-03-13T09:50:33;101469.96;;;19.96;51.46
54870;BME280;40756;-37.950;145.008;2023-03-13T09:53:11;101472.89;;;19.59;52.88
54870;BME280;40756;-37.950;145.008;2023-03-13T09:55:43;101477.76;;;19.90;53.29
54870;BME280;40756;-37.950;145.008;2023-03-13T09:58:17;101484.02;;;19.96;52.80
54870;BME280;40756;-37.950;145.008;2023-03-13T10:00:52;101491.45;;;19.58;52.94
54870;BME280;40756;-37.950;145.008;2023-03-13T10:03:26;101490.79;;;20.00;52.24
54870;BME280;40756;-37.950;145.008;2023-03-13T10:06:01;101492.89;;;19.47;53.91
54870;BME280;40756;-37.950;145.008;2023-03-13T10:08:36;101499.01;;;18.95;54.93
54870;BME280;40756;-37.950;145.008;2023-03-13T10:11:10;101503.09;;;19.76;53.84
54870;BME280;40756;-37.950;145.008;2023-03-13T10:13:44;101510.39;;;19.50;54.41
54870;BME280;40756;-37.950;145.008;2023-03-13T10:16:19;101511.17;;;19.51;54.04
54870;BME280;40756;-37.950;145.008;2023-03-13T10:18:54;101513.09;;;19.86;53.45
54870;BME280;40756;-37.950;145.008;2023-03-13T10:21:29;101524.92;;;18.68;56.09
54870;BME280;40756;-37.950;145.008;2023-03-13T10:24:04;101522.05;;;19.52;55.01
54870;BME280;40756;-37.950;145.008;2023-03-13T10:26:35;101520.48;;;18.68;57.03
54870;BME280;40756;-37.950;145.008;2023-03-13T10:29:20;101522.89;;;19.26;55.50
54870;BME280;40756;-37.950;145.008;2023-03-13T10:31:55;101521.67;;;19.50;55.45
54870;BME280;40756;-37.950;145.008;2023-03-13T10:34:26;101525.30;;;19.58;54.53
54870;BME280;40756;-37.950;145.008;2023-03-13T10:36:58;101522.04;;;19.71;53.48
54870;BME280;40756;-37.950;145.008;2023-03-13T10:39:28;101525.39;;;19.81;53.47
54870;BME280;40756;-37.950;145.008;2023-03-13T10:42:08;101531.87;;;19.04;54.83
54870;BME280;40756;-37.950;145.008;2023-03-13T10:44:38;101529.22;;;19.52;53.99
54870;BME280;40756;-37.950;145.008;2023-03-13T10:47:13;101528.05;;;19.26;54.76
54870;BME280;40756;-37.950;145.008;2023-03-13T10:49:49;101528.76;;;18.92;55.03
54870;BME280;40756;-37.950;145.008;2023-03-13T10:52:40;101535.58;;;19.01;55.02
54870;BME280;40756;-37.950;145.008;2023-03-13T10:55:15;101532.46;;;19.79;53.73
54870;BME280;40756;-37.950;145.008;2023-03-13T10:57:55;101529.68;;;19.27;54.97
54870;BME280;40756;-37.950;145.008;2023-03-13T11:00:33;101526.70;;;19.53;53.89
54870;BME280;40756;-37.950;145.008;2023-03-13T11:03:06;101522.82;;;19.43;53.27
54870;BME280;40756;-37.950;145.008;2023-03-13T11:05:43;101518.06;;;19.74;53.18
54870;BME280;40756;-37.950;145.008;2023-03-13T11:08:20;101516.19;;;19.35;54.26
54870;BME280;40756;-37.950;145.008;2023-03-13T11:10:59;101510.40;;;19.52;53.99
54870;BME280;40756;-37.950;145.008;2023-03-13T11:13:33;101510.17;;;19.71;53.30
54870;BME280;40756;-37.950;145.008;2023-03-13T11:16:11;101507.51;;;19.18;53.92
54870;BME280;40756;-37.950;145.008;2023-03-13T11:18:58;101500.29;;;19.89;53.12
54870;BME280;40756;-37.950;145.008;2023-03-13T11:21:40;101496.40;;;19.78;52.60
54870;BME280;40756;-37.950;145.008;2023-03-13T11:24:18;101495.51;;;19.88;52.78
54870;BME280;40756;-37.950;145.008;2023-03-13T11:26:57;101496.67;;;19.79;52.76
54870;BME280;40756;-37.950;145.008;2023-03-13T11:29:34;101499.78;;;19.41;54.15
54870;BME280;40756;-37.950;145.008;2023-03-13T11:32:14;101499.53;;;19.49;53.32
54870;BME280;40756;-37.950;145.008;2023-03-13T11:34:50;101494.74;;;19.49;52.97
54870;BME280;40756;-37.950;145.008;2023-03-13T11:37:21;101494.37;;;19.66;52.80
54870;BME280;40756;-37.950;145.008;2023-03-13T11:40:00;101490.79;;;19.58;52.52
54870;BME280;40756;-37.950;145.008;2023-03-13T11:42:42;101491.12;;;19.64;52.96
54870;BME280;40756;-37.950;145.008;2023-03-13T11:45:29;101490.17;;;19.77;53.04
54870;BME280;40756;-37.950;145.008;2023-03-13T11:48:07;101491.07;;;19.26;52.77
54870;BME280;40756;-37.950;145.008;2023-03-13T11:50:43;101489.08;;;19.84;53.08
54870;BME280;40756;-37.950;145.008;2023-03-13T11:53:29;101485.18;;;19.62;53.62
54870;BME280;40756;-37.950;145.008;2023-03-13T11:56:06;101488.89;;;19.67;52.98
54870;BME280;40756;-37.950;145.008;2023-03-13T11:59:12;101499.71;;;19.01;53.59
54870;BME280;40756;-37.950;145.008;2023-03-13T12:01:50;101506.07;;;19.03;53.00
54870;BME280;40756;-37.950;145.008;2023-03-13T12:04:25;101502.84;;;18.85;53.91
54870;BME280;40756;-37.950;145.008;2023-03-13T12:07:00;101497.49;;;19.38;53.85
54870;BME280;40756;-37.950;145.008;2023-03-13T12:09:33;101492.27;;;19.06;53.79
54870;BME280;40756;-37.950;145.008;2023-03-13T12:12:16;101494.06;;;19.01;54.22
54870;BME280;40756;-37.950;145.008;2023-03-13T12:14:51;101494.91;;;19.41;54.05
54870;BME280;40756;-37.950;145.008;2023-03-13T12:17:30;101493.42;;;19.22;53.93
54870;BME280;40756;-37.950;145.008;2023-03-13T12:20:05;101487.48;;;19.81;53.99
54870;BME280;40756;-37.950;145.008;2023-03-13T12:22:39;101484.64;;;19.61;54.18
54870;BME280;40756;-37.950;145.008;2023-03-13T12:25:15;101479.97;;;19.42;54.43
54870;BME280;40756;-37.950;145.008;2023-03-13T12:27:51;101482.36;;;19.97;55.28
54870;BME280;40756;-37.950;145.008;2023-03-13T12:30:29;101478.80;;;19.41;54.29
54870;BME280;40756;-37.950;145.008;2023-03-13T12:33:11;101481.40;;;19.51;53.86
54870;BME280;40756;-37.950;145.008;2023-03-13T12:35:48;101481.12;;;19.36;54.88
54870;BME280;40756;-37.950;145.008;2023-03-13T12:38:26;101484.07;;;19.45;54.88
54870;BME280;40756;-37.950;145.008;2023-03-13T12:41:09;101484.83;;;19.39;54.84
54870;BME280;40756;-37.950;145.008;2023-03-13T12:43:45;101486.69;;;19.37;54.62
54870;BME280;40756;-37.950;145.008;2023-03-13T12:46:33;101487.80;;;19.53;54.82